Terminal Aerodrome Forecast
Issued by NWS

Home | Current Version | Previous Version | Text Only | Print | Product List | Glossary On
Versions: 1 2 3 4 5 6 7 8 9 10 11 12 13 14 15
002
FTUS41 KCAR 211120
TAFPQI
TAF
KPQI 211120Z 2112/2212 21006KT P6SM BKN100
     FM211600 29007KT P6SM VCTS BKN070CB
     FM211700 30009KT P6SM BKN100
     FM211800 30010KT P6SM VCTS BKN150CB
     FM212100 30009KT P6SM VCSH BKN120
     FM220200 VRB03KT P6SM BKN200=

USA.gov is the U.S. government's official web portal to all federal, state and local government web resources and services.